KDXR/DXR METAR and TAF weather

Enter ICAO airport designator
Station Type Date Time Source
KDXR METAR 2022/12/04 11:53 UTC NOAA

KDXR 041153Z 00000KT 10SM CLR 01/M07 A3020 RMK AO2 SLP228 70042 T00061072 10061 20000 53020


Station Type Date Time Source
KDXR Decoded METAR 2022/12/04 11:53 UTC NOAA

DANBURY MUNICIPAL AIRPORT, CT, United States (KDXR) 41-22N 073-29W 139M
Dec 04, 2022 - 06:53 AM EST / 2022.12.04 1153 UTC
Wind: Calm:0
Visibility: 10 mile(s):0
Sky conditions: clear
Temperature: 33.1 F (0.6 C)
Dew Point: 19.0 F (-7.2 C)
Relative Humidity: 55%
Pressure (altimeter): 30.2 in. Hg (1022 hPa)
Pressure tendency: 0.06 inches (2.0 hPa) higher than three hours ago
ob: KDXR 041153Z 00000KT 10SM CLR 01/M07 A3020 RMK AO2 SLP228 70042 T00061072 10061 20000 53020
cycle: 12

Station Type Date Time Source
KDXR TAF UTC NOAA

Error!

Example: see airport list